sensor_id;sensor_type;location;lat;lon;timestamp;P1;durP1;ratioP1;P2;durP2;ratioP2
46198;SDS011;31928;52.104;10.030;2022-08-30T00:01:02;1.40;;;1.20;;
46198;SDS011;31928;52.104;10.030;2022-08-30T00:03:35;1.00;;;0.90;;
46198;SDS011;31928;52.104;10.030;2022-08-30T00:06:04;3.90;;;1.83;;
46198;SDS011;31928;52.104;10.030;2022-08-30T00:08:34;1.83;;;1.40;;
46198;SDS011;31928;52.104;10.030;2022-08-30T00:11:02;1.80;;;1.20;;
46198;SDS011;31928;52.104;10.030;2022-08-30T00:13:30;1.70;;;1.20;;
46198;SDS011;31928;52.104;10.030;2022-08-30T00:15:57;1.13;;;1.05;;
46198;SDS011;31928;52.104;10.030;2022-08-30T00:18:23;1.25;;;1.15;;
46198;SDS011;31928;52.104;10.030;2022-08-30T00:20:50;0.90;;;0.90;;
46198;SDS011;31928;52.104;10.030;2022-08-30T00:23:17;1.60;;;1.20;;
46198;SDS011;31928;52.104;10.030;2022-08-30T00:25:45;2.63;;;0.95;;
46198;SDS011;31928;52.104;10.030;2022-08-30T00:28:11;1.88;;;0.95;;
46198;SDS011;31928;52.104;10.030;2022-08-30T00:30:39;1.00;;;0.90;;
46198;SDS011;31928;52.104;10.030;2022-08-30T00:33:07;0.70;;;0.70;;
46198;SDS011;31928;52.104;10.030;2022-08-30T00:35:34;0.85;;;0.85;;
46198;SDS011;31928;52.104;10.030;2022-08-30T00:38:01;1.08;;;0.77;;
46198;SDS011;31928;52.104;10.030;2022-08-30T00:40:28;0.90;;;0.90;;
46198;SDS011;31928;52.104;10.030;2022-08-30T00:42:56;1.05;;;1.00;;
46198;SDS011;31928;52.104;10.030;2022-08-30T00:45:31;0.80;;;0.80;;
46198;SDS011;31928;52.104;10.030;2022-08-30T00:48:00;0.85;;;0.70;;
46198;SDS011;31928;52.104;10.030;2022-08-30T00:50:30;0.80;;;0.80;;
46198;SDS011;31928;52.104;10.030;2022-08-30T00:52:59;0.80;;;0.80;;
46198;SDS011;31928;52.104;10.030;2022-08-30T00:55:29;1.00;;;0.90;;
46198;SDS011;31928;52.104;10.030;2022-08-30T00:57:57;0.70;;;0.70;;
46198;SDS011;31928;52.104;10.030;2022-08-30T01:00:30;1.00;;;0.90;;
46198;SDS011;31928;52.104;10.030;2022-08-30T01:02:57;0.80;;;0.80;;
46198;SDS011;31928;52.104;10.030;2022-08-30T01:05:24;0.70;;;0.70;;
46198;SDS011;31928;52.104;10.030;2022-08-30T01:07:50;0.80;;;0.80;;
46198;SDS011;31928;52.104;10.030;2022-08-30T01:10:18;0.90;;;0.90;;
46198;SDS011;31928;52.104;10.030;2022-08-30T01:12:45;0.80;;;0.80;;
46198;SDS011;31928;52.104;10.030;2022-08-30T01:15:13;0.80;;;0.80;;
46198;SDS011;31928;52.104;10.030;2022-08-30T01:17:42;0.90;;;0.90;;
46198;SDS011;31928;52.104;10.030;2022-08-30T01:20:12;0.80;;;0.80;;
46198;SDS011;31928;52.104;10.030;2022-08-30T01:25:17;0.90;;;0.90;;
46198;SDS011;31928;52.104;10.030;2022-08-30T01:27:50;1.35;;;0.90;;
46198;SDS011;31928;52.104;10.030;2022-08-30T01:30:19;0.80;;;0.80;;
46198;SDS011;31928;52.104;10.030;2022-08-30T01:32:46;0.98;;;0.98;;
46198;SDS011;31928;52.104;10.030;2022-08-30T01:35:15;0.80;;;0.80;;
46198;SDS011;31928;52.104;10.030;2022-08-30T01:37:43;1.30;;;1.20;;
46198;SDS011;31928;52.104;10.030;2022-08-30T01:40:15;0.90;;;0.90;;
46198;SDS011;31928;52.104;10.030;2022-08-30T01:42:44;1.17;;;1.08;;
46198;SDS011;31928;52.104;10.030;2022-08-30T01:45:11;1.02;;;0.80;;
46198;SDS011;31928;52.104;10.030;2022-08-30T01:47:38;1.35;;;1.35;;
46198;SDS011;31928;52.104;10.030;2022-08-30T01:50:05;0.80;;;0.80;;
46198;SDS011;31928;52.104;10.030;2022-08-30T01:52:33;0.95;;;0.95;;
46198;SDS011;31928;52.104;10.030;2022-08-30T01:55:00;0.77;;;0.77;;
46198;SDS011;31928;52.104;10.030;2022-08-30T01:57:28;0.93;;;0.85;;
46198;SDS011;31928;52.104;10.030;2022-08-30T01:59:54;0.95;;;0.95;;
46198;SDS011;31928;52.104;10.030;2022-08-30T02:02:22;1.30;;;1.00;;
46198;SDS011;31928;52.104;10.030;2022-08-30T02:04:51;1.00;;;1.00;;
46198;SDS011;31928;52.104;10.030;2022-08-30T02:07:19;2.20;;;1.05;;
46198;SDS011;31928;52.104;10.030;2022-08-30T02:09:46;1.60;;;0.93;;
46198;SDS011;31928;52.104;10.030;2022-08-30T02:12:13;0.80;;;0.80;;
46198;SDS011;31928;52.104;10.030;2022-08-30T02:14:40;0.90;;;0.90;;
46198;SDS011;31928;52.104;10.030;2022-08-30T02:17:07;1.30;;;1.00;;
46198;SDS011;31928;52.104;10.030;2022-08-30T02:19:36;1.00;;;1.00;;
46198;SDS011;31928;52.104;10.030;2022-08-30T02:22:04;1.13;;;0.90;;
46198;SDS011;31928;52.104;10.030;2022-08-30T02:24:31;0.85;;;0.85;;
46198;SDS011;31928;52.104;10.030;2022-08-30T02:26:58;1.27;;;0.90;;
46198;SDS011;31928;52.104;10.030;2022-08-30T02:29:26;0.80;;;0.80;;
46198;SDS011;31928;52.104;10.030;2022-08-30T02:31:52;0.90;;;0.90;;
46198;SDS011;31928;52.104;10.030;2022-08-30T02:34:19;1.83;;;1.25;;
46198;SDS011;31928;52.104;10.030;2022-08-30T02:36:46;1.98;;;1.10;;
46198;SDS011;31928;52.104;10.030;2022-08-30T02:39:13;1.70;;;1.00;;
46198;SDS011;31928;52.104;10.030;2022-08-30T02:41:40;1.23;;;1.13;;
46198;SDS011;31928;52.104;10.030;2022-08-30T02:44:08;1.40;;;1.27;;
46198;SDS011;31928;52.104;10.030;2022-08-30T02:46:36;1.15;;;1.05;;
46198;SDS011;31928;52.104;10.030;2022-08-30T02:49:03;1.10;;;1.10;;
46198;SDS011;31928;52.104;10.030;2022-08-30T02:51:50;1.20;;;1.08;;
46198;SDS011;31928;52.104;10.030;2022-08-30T02:54:17;1.40;;;1.10;;
46198;SDS011;31928;52.104;10.030;2022-08-30T02:56:45;1.00;;;1.00;;
46198;SDS011;31928;52.104;10.030;2022-08-30T02:59:13;1.40;;;1.30;;
46198;SDS011;31928;52.104;10.030;2022-08-30T03:01:41;1.13;;;1.08;;
46198;SDS011;31928;52.104;10.030;2022-08-30T03:04:08;1.20;;;1.10;;
46198;SDS011;31928;52.104;10.030;2022-08-30T03:06:35;1.50;;;1.10;;
46198;SDS011;31928;52.104;10.030;2022-08-30T03:09:02;1.00;;;1.00;;
46198;SDS011;31928;52.104;10.030;2022-08-30T03:11:29;1.38;;;1.27;;
46198;SDS011;31928;52.104;10.030;2022-08-30T03:13:56;1.48;;;1.20;;
46198;SDS011;31928;52.104;10.030;2022-08-30T03:16:23;2.40;;;1.10;;
46198;SDS011;31928;52.104;10.030;2022-08-30T03:18:50;1.30;;;1.20;;
46198;SDS011;31928;52.104;10.030;2022-08-30T03:21:16;1.23;;;1.13;;
46198;SDS011;31928;52.104;10.030;2022-08-30T03:23:43;1.83;;;1.20;;
46198;SDS011;31928;52.104;10.030;2022-08-30T03:26:10;1.30;;;1.20;;
46198;SDS011;31928;52.104;10.030;2022-08-30T03:28:40;1.10;;;1.00;;
46198;SDS011;31928;52.104;10.030;2022-08-30T03:31:08;1.00;;;1.00;;
46198;SDS011;31928;52.104;10.030;2022-08-30T03:33:35;0.90;;;0.90;;
46198;SDS011;31928;52.104;10.030;2022-08-30T03:36:06;1.00;;;1.00;;
46198;SDS011;31928;52.104;10.030;2022-08-30T03:38:34;0.95;;;0.93;;
46198;SDS011;31928;52.104;10.030;2022-08-30T03:41:01;1.10;;;1.00;;
46198;SDS011;31928;52.104;10.030;2022-08-30T03:43:30;1.10;;;1.00;;
46198;SDS011;31928;52.104;10.030;2022-08-30T03:45:59;1.05;;;1.00;;
46198;SDS011;31928;52.104;10.030;2022-08-30T03:48:27;1.75;;;1.02;;
46198;SDS011;31928;52.104;10.030;2022-08-30T03:50:54;1.08;;;1.00;;
46198;SDS011;31928;52.104;10.030;2022-08-30T03:53:21;2.25;;;1.00;;
46198;SDS011;31928;52.104;10.030;2022-08-30T03:55:52;2.58;;;1.20;;
46198;SDS011;31928;52.104;10.030;2022-08-30T03:58:20;1.33;;;1.05;;
46198;SDS011;31928;52.104;10.030;2022-08-30T04:00:46;1.80;;;1.20;;
46198;SDS011;31928;52.104;10.030;2022-08-30T04:03:13;2.45;;;1.20;;
46198;SDS011;31928;52.104;10.030;2022-08-30T04:05:40;1.52;;;1.20;;
46198;SDS011;31928;52.104;10.030;2022-08-30T04:08:07;1.58;;;1.27;;
46198;SDS011;31928;52.104;10.030;2022-08-30T04:10:33;2.25;;;1.17;;
46198;SDS011;31928;52.104;10.030;2022-08-30T04:13:00;1.08;;;1.08;;
46198;SDS011;31928;52.104;10.030;2022-08-30T04:15:27;2.10;;;1.23;;
46198;SDS011;31928;52.104;10.030;2022-08-30T04:17:53;2.78;;;2.30;;
46198;SDS011;31928;52.104;10.030;2022-08-30T04:20:20;1.23;;;1.15;;
46198;SDS011;31928;52.104;10.030;2022-08-30T04:22:47;1.70;;;1.30;;
46198;SDS011;31928;52.104;10.030;2022-08-30T04:25:13;1.52;;;1.42;;
46198;SDS011;31928;52.104;10.030;2022-08-30T04:27:40;1.40;;;1.30;;
46198;SDS011;31928;52.104;10.030;2022-08-30T04:30:07;1.73;;;1.30;;
46198;SDS011;31928;52.104;10.030;2022-08-30T04:32:34;2.17;;;1.90;;
46198;SDS011;31928;52.104;10.030;2022-08-30T04:35:01;2.33;;;2.03;;
46198;SDS011;31928;52.104;10.030;2022-08-30T04:37:28;3.22;;;2.15;;
46198;SDS011;31928;52.104;10.030;2022-08-30T04:39:58;2.85;;;2.58;;
46198;SDS011;31928;52.104;10.030;2022-08-30T04:42:30;4.25;;;3.17;;
46198;SDS011;31928;52.104;10.030;2022-08-30T04:44:58;4.70;;;3.13;;
46198;SDS011;31928;52.104;10.030;2022-08-30T04:47:27;5.07;;;3.60;;
46198;SDS011;31928;52.104;10.030;2022-08-30T04:49:59;4.35;;;3.80;;
46198;SDS011;31928;52.104;10.030;2022-08-30T04:52:27;5.00;;;4.35;;
46198;SDS011;31928;52.104;10.030;2022-08-30T04:54:54;12.10;;;4.80;;
46198;SDS011;31928;52.104;10.030;2022-08-30T04:57:22;5.68;;;3.97;;
46198;SDS011;31928;52.104;10.030;2022-08-30T04:59:49;4.50;;;3.65;;
46198;SDS011;31928;52.104;10.030;2022-08-30T05:02:16;4.75;;;4.13;;
46198;SDS011;31928;52.104;10.030;2022-08-30T05:04:43;4.25;;;3.60;;
46198;SDS011;31928;52.104;10.030;2022-08-30T05:07:28;4.28;;;3.33;;
46198;SDS011;31928;52.104;10.030;2022-08-30T05:09:57;3.90;;;3.20;;
46198;SDS011;31928;52.104;10.030;2022-08-30T05:12:24;4.10;;;3.58;;
46198;SDS011;31928;52.104;10.030;2022-08-30T05:14:51;3.55;;;3.05;;
46198;SDS011;31928;52.104;10.030;2022-08-30T05:17:18;3.10;;;2.63;;
46198;SDS011;31928;52.104;10.030;2022-08-30T05:19:44;3.45;;;3.00;;
46198;SDS011;31928;52.104;10.030;2022-08-30T05:22:11;3.33;;;2.70;;
46198;SDS011;31928;52.104;10.030;2022-08-30T05:24:37;3.08;;;2.72;;
46198;SDS011;31928;52.104;10.030;2022-08-30T05:27:04;2.75;;;2.55;;
46198;SDS011;31928;52.104;10.030;2022-08-30T05:29:31;2.50;;;2.25;;
46198;SDS011;31928;52.104;10.030;2022-08-30T05:31:58;2.00;;;1.90;;
46198;SDS011;31928;52.104;10.030;2022-08-30T05:34:25;2.33;;;2.13;;
46198;SDS011;31928;52.104;10.030;2022-08-30T05:36:54;2.28;;;2.08;;
46198;SDS011;31928;52.104;10.030;2022-08-30T05:39:21;2.58;;;2.00;;
46198;SDS011;31928;52.104;10.030;2022-08-30T05:41:48;7.22;;;2.10;;
46198;SDS011;31928;52.104;10.030;2022-08-30T05:44:15;4.82;;;2.17;;
46198;SDS011;31928;52.104;10.030;2022-08-30T05:46:42;2.20;;;1.80;;
46198;SDS011;31928;52.104;10.030;2022-08-30T05:49:11;3.97;;;2.10;;
46198;SDS011;31928;52.104;10.030;2022-08-30T05:51:38;1.90;;;1.80;;
46198;SDS011;31928;52.104;10.030;2022-08-30T05:54:09;2.30;;;2.10;;
46198;SDS011;31928;52.104;10.030;2022-08-30T05:56:37;2.38;;;1.60;;
46198;SDS011;31928;52.104;10.030;2022-08-30T05:59:05;2.55;;;1.42;;
46198;SDS011;31928;52.104;10.030;2022-08-30T06:01:34;2.13;;;1.88;;
46198;SDS011;31928;52.104;10.030;2022-08-30T06:04:04;1.52;;;1.40;;
46198;SDS011;31928;52.104;10.030;2022-08-30T06:06:33;1.77;;;1.67;;
46198;SDS011;31928;52.104;10.030;2022-08-30T06:09:01;1.92;;;1.70;;
46198;SDS011;31928;52.104;10.030;2022-08-30T06:11:31;3.15;;;2.08;;
46198;SDS011;31928;52.104;10.030;2022-08-30T06:13:58;3.47;;;1.98;;
46198;SDS011;31928;52.104;10.030;2022-08-30T06:16:26;3.25;;;1.90;;
46198;SDS011;31928;52.104;10.030;2022-08-30T06:18:53;2.33;;;1.95;;
46198;SDS011;31928;52.104;10.030;2022-08-30T06:21:22;5.57;;;1.90;;
46198;SDS011;31928;52.104;10.030;2022-08-30T06:23:52;3.92;;;2.13;;
46198;SDS011;31928;52.104;10.030;2022-08-30T06:26:19;2.05;;;1.90;;
46198;SDS011;31928;52.104;10.030;2022-08-30T06:28:47;2.90;;;2.60;;
46198;SDS011;31928;52.104;10.030;2022-08-30T06:31:15;3.42;;;2.80;;
46198;SDS011;31928;52.104;10.030;2022-08-30T06:33:44;2.92;;;2.38;;
46198;SDS011;31928;52.104;10.030;2022-08-30T06:36:14;3.25;;;2.85;;
46198;SDS011;31928;52.104;10.030;2022-08-30T06:38:42;2.70;;;2.40;;
46198;SDS011;31928;52.104;10.030;2022-08-30T06:41:11;2.25;;;2.05;;
46198;SDS011;31928;52.104;10.030;2022-08-30T06:43:40;3.88;;;3.28;;
46198;SDS011;31928;52.104;10.030;2022-08-30T06:46:15;3.85;;;3.53;;
46198;SDS011;31928;52.104;10.030;2022-08-30T06:48:44;3.50;;;3.20;;
46198;SDS011;31928;52.104;10.030;2022-08-30T06:51:13;3.40;;;3.10;;
46198;SDS011;31928;52.104;10.030;2022-08-30T06:53:44;4.15;;;3.75;;
46198;SDS011;31928;52.104;10.030;2022-08-30T06:56:11;4.13;;;3.83;;
46198;SDS011;31928;52.104;10.030;2022-08-30T06:58:42;3.45;;;3.15;;
46198;SDS011;31928;52.104;10.030;2022-08-30T07:01:19;3.90;;;3.45;;
46198;SDS011;31928;52.104;10.030;2022-08-30T07:03:48;3.75;;;3.38;;
46198;SDS011;31928;52.104;10.030;2022-08-30T07:06:16;3.78;;;3.47;;
46198;SDS011;31928;52.104;10.030;2022-08-30T07:08:44;3.45;;;3.15;;
46198;SDS011;31928;52.104;10.030;2022-08-30T07:11:13;3.80;;;3.50;;
46198;SDS011;31928;52.104;10.030;2022-08-30T07:13:39;3.80;;;3.50;;
46198;SDS011;31928;52.104;10.030;2022-08-30T07:16:10;3.78;;;3.47;;
46198;SDS011;31928;52.104;10.030;2022-08-30T07:18:38;3.80;;;3.45;;
46198;SDS011;31928;52.104;10.030;2022-08-30T07:21:18;3.53;;;3.33;;
46198;SDS011;31928;52.104;10.030;2022-08-30T07:23:47;3.40;;;3.10;;
46198;SDS011;31928;52.104;10.030;2022-08-30T07:26:20;4.85;;;4.45;;
46198;SDS011;31928;52.104;10.030;2022-08-30T07:28:49;4.60;;;3.80;;
46198;SDS011;31928;52.104;10.030;2022-08-30T07:31:21;3.67;;;3.38;;
46198;SDS011;31928;52.104;10.030;2022-08-30T07:33:49;4.53;;;4.13;;
46198;SDS011;31928;52.104;10.030;2022-08-30T07:36:16;3.90;;;3.60;;
46198;SDS011;31928;52.104;10.030;2022-08-30T07:38:44;4.18;;;3.80;;
46198;SDS011;31928;52.104;10.030;2022-08-30T07:41:25;4.35;;;3.95;;
46198;SDS011;31928;52.104;10.030;2022-08-30T07:43:54;5.57;;;3.33;;
46198;SDS011;31928;52.104;10.030;2022-08-30T07:46:22;5.07;;;4.38;;
46198;SDS011;31928;52.104;10.030;2022-08-30T07:48:50;6.40;;;5.57;;
46198;SDS011;31928;52.104;10.030;2022-08-30T07:51:18;6.22;;;5.20;;
46198;SDS011;31928;52.104;10.030;2022-08-30T07:53:46;5.93;;;5.18;;
46198;SDS011;31928;52.104;10.030;2022-08-30T07:56:13;7.32;;;5.35;;
46198;SDS011;31928;52.104;10.030;2022-08-30T07:58:41;5.90;;;5.03;;
46198;SDS011;31928;52.104;10.030;2022-08-30T08:01:08;6.88;;;6.18;;
46198;SDS011;31928;52.104;10.030;2022-08-30T08:03:37;6.88;;;5.80;;
46198;SDS011;31928;52.104;10.030;2022-08-30T08:06:06;7.55;;;5.60;;
46198;SDS011;31928;52.104;10.030;2022-08-30T08:08:35;7.65;;;6.05;;
46198;SDS011;31928;52.104;10.030;2022-08-30T08:11:06;7.97;;;5.65;;
46198;SDS011;31928;52.104;10.030;2022-08-30T08:13:41;7.78;;;6.47;;
46198;SDS011;31928;52.104;10.030;2022-08-30T08:16:23;6.75;;;5.60;;
46198;SDS011;31928;52.104;10.030;2022-08-30T08:18:52;7.05;;;6.35;;
46198;SDS011;31928;52.104;10.030;2022-08-30T08:21:19;7.45;;;6.68;;
46198;SDS011;31928;52.104;10.030;2022-08-30T08:23:48;10.02;;;7.57;;
46198;SDS011;31928;52.104;10.030;2022-08-30T08:26:15;8.80;;;7.90;;
46198;SDS011;31928;52.104;10.030;2022-08-30T08:28:42;9.00;;;6.75;;
46198;SDS011;31928;52.104;10.030;2022-08-30T08:33:42;8.98;;;8.07;;
46198;SDS011;31928;52.104;10.030;2022-08-30T08:36:09;10.85;;;9.05;;
46198;SDS011;31928;52.104;10.030;2022-08-30T08:38:35;9.48;;;8.30;;
46198;SDS011;31928;52.104;10.030;2022-08-30T08:43:32;11.35;;;8.07;;
46198;SDS011;31928;52.104;10.030;2022-08-30T08:49:02;8.05;;;6.90;;
46198;SDS011;31928;52.104;10.030;2022-08-30T08:51:31;8.90;;;7.97;;
46198;SDS011;31928;52.104;10.030;2022-08-30T08:54:20;7.35;;;6.50;;
46198;SDS011;31928;52.104;10.030;2022-08-30T08:57:09;7.40;;;5.50;;
46198;SDS011;31928;52.104;10.030;2022-08-30T08:59:41;7.38;;;6.38;;
46198;SDS011;31928;52.104;10.030;2022-08-30T09:02:33;8.23;;;6.50;;
46198;SDS011;31928;52.104;10.030;2022-08-30T09:05:08;7.88;;;6.82;;
46198;SDS011;31928;52.104;10.030;2022-08-30T09:07:41;7.65;;;5.57;;
46198;SDS011;31928;52.104;10.030;2022-08-30T09:10:13;7.68;;;6.50;;
46198;SDS011;31928;52.104;10.030;2022-08-30T09:12:45;9.35;;;7.15;;
46198;SDS011;31928;52.104;10.030;2022-08-30T09:15:22;8.98;;;7.97;;
46198;SDS011;31928;52.104;10.030;2022-08-30T09:17:56;9.85;;;7.53;;
46198;SDS011;31928;52.104;10.030;2022-08-30T09:20:26;9.05;;;8.02;;
46198;SDS011;31928;52.104;10.030;2022-08-30T09:22:57;9.68;;;7.38;;
46198;SDS011;31928;52.104;10.030;2022-08-30T09:25:28;10.32;;;8.13;;
46198;SDS011;31928;52.104;10.030;2022-08-30T09:28:20;10.50;;;9.02;;
46198;SDS011;31928;52.104;10.030;2022-08-30T09:31:01;8.27;;;7.25;;
46198;SDS011;31928;52.104;10.030;2022-08-30T09:33:37;9.80;;;8.65;;
46198;SDS011;31928;52.104;10.030;2022-08-30T09:36:18;10.32;;;8.27;;
46198;SDS011;31928;52.104;10.030;2022-08-30T09:38:58;9.27;;;8.38;;
46198;SDS011;31928;52.104;10.030;2022-08-30T09:41:37;7.43;;;6.70;;
46198;SDS011;31928;52.104;10.030;2022-08-30T09:44:09;6.80;;;6.20;;
46198;SDS011;31928;52.104;10.030;2022-08-30T09:46:59;6.72;;;6.13;;
46198;SDS011;31928;52.104;10.030;2022-08-30T09:55:18;5.72;;;4.53;;
46198;SDS011;31928;52.104;10.030;2022-08-30T10:15:13;3.28;;;2.97;;
46198;SDS011;31928;52.104;10.030;2022-08-30T10:17:55;3.10;;;2.90;;
46198;SDS011;31928;52.104;10.030;2022-08-30T10:23:32;2.53;;;2.33;;
46198;SDS011;31928;52.104;10.030;2022-08-30T10:26:12;3.15;;;2.72;;
46198;SDS011;31928;52.104;10.030;2022-08-30T10:34:11;3.75;;;3.33;;
46198;SDS011;31928;52.104;10.030;2022-08-30T10:36:44;3.63;;;3.33;;
46198;SDS011;31928;52.104;10.030;2022-08-30T10:39:17;3.38;;;3.08;;
46198;SDS011;31928;52.104;10.030;2022-08-30T10:41:49;4.00;;;3.70;;
46198;SDS011;31928;52.104;10.030;2022-08-30T10:44:28;4.05;;;3.75;;
46198;SDS011;31928;52.104;10.030;2022-08-30T10:49:48;4.20;;;3.80;;
46198;SDS011;31928;52.104;10.030;2022-08-30T10:52:22;4.70;;;4.30;;
46198;SDS011;31928;52.104;10.030;2022-08-30T10:54:58;4.30;;;3.90;;
46198;SDS011;31928;52.104;10.030;2022-08-30T10:57:28;4.78;;;4.25;;
46198;SDS011;31928;52.104;10.030;2022-08-30T10:59:59;4.10;;;3.80;;
46198;SDS011;31928;52.104;10.030;2022-08-30T11:13:41;4.00;;;3.67;;
46198;SDS011;31928;52.104;10.030;2022-08-30T11:16:11;4.47;;;4.10;;
46198;SDS011;31928;52.104;10.030;2022-08-30T11:18:45;4.32;;;3.92;;
46198;SDS011;31928;52.104;10.030;2022-08-30T11:24:02;4.30;;;4.00;;
46198;SDS011;31928;52.104;10.030;2022-08-30T11:32:19;4.43;;;4.13;;
46198;SDS011;31928;52.104;10.030;2022-08-30T11:42:28;4.97;;;4.57;;
46198;SDS011;31928;52.104;10.030;2022-08-30T11:48:36;5.47;;;4.40;;
46198;SDS011;31928;52.104;10.030;2022-08-30T11:51:32;4.82;;;4.43;;
46198;SDS011;31928;52.104;10.030;2022-08-30T12:02:38;6.18;;;5.78;;
46198;SDS011;31928;52.104;10.030;2022-08-30T12:08:05;5.65;;;5.15;;
46198;SDS011;31928;52.104;10.030;2022-08-30T12:10:35;5.80;;;5.40;;
46198;SDS011;31928;52.104;10.030;2022-08-30T12:13:03;5.53;;;5.13;;
46198;SDS011;31928;52.104;10.030;2022-08-30T12:15:51;5.95;;;5.45;;
46198;SDS011;31928;52.104;10.030;2022-08-30T12:18:20;5.90;;;5.40;;
46198;SDS011;31928;52.104;10.030;2022-08-30T12:26:31;6.00;;;5.50;;
46198;SDS011;31928;52.104;10.030;2022-08-30T12:29:13;7.20;;;6.60;;
46198;SDS011;31928;52.104;10.030;2022-08-30T12:37:00;5.88;;;5.38;;
46198;SDS011;31928;52.104;10.030;2022-08-30T12:39:33;4.68;;;4.38;;
46198;SDS011;31928;52.104;10.030;2022-08-30T12:42:10;5.78;;;5.30;;
46198;SDS011;31928;52.104;10.030;2022-08-30T12:44:53;5.10;;;4.60;;
46198;SDS011;31928;52.104;10.030;2022-08-30T12:47:25;6.07;;;5.57;;
46198;SDS011;31928;52.104;10.030;2022-08-30T12:49:57;4.93;;;4.50;;
46198;SDS011;31928;52.104;10.030;2022-08-30T12:54:52;4.65;;;4.25;;
46198;SDS011;31928;52.104;10.030;2022-08-30T13:00:47;4.32;;;4.00;;
46198;SDS011;31928;52.104;10.030;2022-08-30T13:03:32;4.82;;;4.43;;
46198;SDS011;31928;52.104;10.030;2022-08-30T13:06:02;3.78;;;3.47;;
46198;SDS011;31928;52.104;10.030;2022-08-30T13:08:32;4.28;;;3.97;;
46198;SDS011;31928;52.104;10.030;2022-08-30T13:11:21;4.13;;;3.70;;
46198;SDS011;31928;52.104;10.030;2022-08-30T13:20:00;3.00;;;2.80;;
46198;SDS011;31928;52.104;10.030;2022-08-30T13:22:33;3.45;;;2.83;;
46198;SDS011;31928;52.104;10.030;2022-08-30T13:25:08;3.17;;;2.88;;
46198;SDS011;31928;52.104;10.030;2022-08-30T13:27:41;2.70;;;2.47;;
46198;SDS011;31928;52.104;10.030;2022-08-30T13:30:13;2.67;;;2.47;;
46198;SDS011;31928;52.104;10.030;2022-08-30T13:32:48;2.50;;;2.30;;
46198;SDS011;31928;52.104;10.030;2022-08-30T13:35:14;2.53;;;2.33;;
46198;SDS011;31928;52.104;10.030;2022-08-30T13:37:42;2.40;;;2.20;;
46198;SDS011;31928;52.104;10.030;2022-08-30T13:40:16;2.72;;;2.47;;
46198;SDS011;31928;52.104;10.030;2022-08-30T13:42:43;2.20;;;2.00;;
46198;SDS011;31928;52.104;10.030;2022-08-30T13:45:12;2.10;;;2.00;;
46198;SDS011;31928;52.104;10.030;2022-08-30T13:48:00;2.33;;;2.17;;
46198;SDS011;31928;52.104;10.030;2022-08-30T13:50:27;2.65;;;2.25;;
46198;SDS011;31928;52.104;10.030;2022-08-30T13:52:55;2.00;;;1.83;;
46198;SDS011;31928;52.104;10.030;2022-08-30T13:55:22;3.42;;;2.00;;
46198;SDS011;31928;52.104;10.030;2022-08-30T13:57:48;2.20;;;1.70;;
46198;SDS011;31928;52.104;10.030;2022-08-30T14:00:19;2.17;;;2.05;;
46198;SDS011;31928;52.104;10.030;2022-08-30T14:02:48;2.03;;;1.83;;
46198;SDS011;31928;52.104;10.030;2022-08-30T14:05:21;2.30;;;2.08;;
46198;SDS011;31928;52.104;10.030;2022-08-30T14:08:13;1.75;;;1.65;;
46198;SDS011;31928;52.104;10.030;2022-08-30T14:11:02;1.60;;;1.50;;
46198;SDS011;31928;52.104;10.030;2022-08-30T14:13:29;1.92;;;1.80;;
46198;SDS011;31928;52.104;10.030;2022-08-30T14:15:56;1.60;;;1.50;;
46198;SDS011;31928;52.104;10.030;2022-08-30T14:18:45;1.67;;;1.58;;
46198;SDS011;31928;52.104;10.030;2022-08-30T14:21:12;1.52;;;1.42;;
46198;SDS011;31928;52.104;10.030;2022-08-30T14:23:39;1.63;;;1.52;;
46198;SDS011;31928;52.104;10.030;2022-08-30T14:26:10;2.28;;;1.60;;
46198;SDS011;31928;52.104;10.030;2022-08-30T14:28:42;1.70;;;1.60;;
46198;SDS011;31928;52.104;10.030;2022-08-30T14:31:10;2.70;;;1.75;;
46198;SDS011;31928;52.104;10.030;2022-08-30T14:33:38;1.60;;;1.50;;
46198;SDS011;31928;52.104;10.030;2022-08-30T14:36:05;1.80;;;1.70;;
46198;SDS011;31928;52.104;10.030;2022-08-30T14:38:40;1.58;;;1.48;;
46198;SDS011;31928;52.104;10.030;2022-08-30T14:41:08;1.65;;;1.40;;
46198;SDS011;31928;52.104;10.030;2022-08-30T14:43:36;1.67;;;1.48;;
46198;SDS011;31928;52.104;10.030;2022-08-30T14:46:06;1.60;;;1.50;;
46198;SDS011;31928;52.104;10.030;2022-08-30T14:48:35;1.55;;;1.35;;
46198;SDS011;31928;52.104;10.030;2022-08-30T14:51:10;1.20;;;1.10;;
46198;SDS011;31928;52.104;10.030;2022-08-30T14:53:42;2.08;;;1.70;;
46198;SDS011;31928;52.104;10.030;2022-08-30T14:56:11;1.27;;;1.17;;
46198;SDS011;31928;52.104;10.030;2022-08-30T14:58:40;1.33;;;1.23;;
46198;SDS011;31928;52.104;10.030;2022-08-30T15:01:07;1.30;;;1.20;;
46198;SDS011;31928;52.104;10.030;2022-08-30T15:03:38;1.23;;;1.13;;
46198;SDS011;31928;52.104;10.030;2022-08-30T15:06:05;2.08;;;1.48;;
46198;SDS011;31928;52.104;10.030;2022-08-30T15:08:34;1.30;;;1.20;;
46198;SDS011;31928;52.104;10.030;2022-08-30T15:11:06;1.10;;;1.00;;
46198;SDS011;31928;52.104;10.030;2022-08-30T15:13:34;1.83;;;1.30;;
46198;SDS011;31928;52.104;10.030;2022-08-30T15:16:01;1.40;;;1.30;;
46198;SDS011;31928;52.104;10.030;2022-08-30T15:18:28;1.88;;;1.30;;
46198;SDS011;31928;52.104;10.030;2022-08-30T15:20:54;2.00;;;1.48;;
46198;SDS011;31928;52.104;10.030;2022-08-30T15:23:21;1.75;;;1.60;;
46198;SDS011;31928;52.104;10.030;2022-08-30T15:25:50;1.25;;;1.08;;
46198;SDS011;31928;52.104;10.030;2022-08-30T15:28:17;1.67;;;1.30;;
46198;SDS011;31928;52.104;10.030;2022-08-30T15:30:44;2.45;;;1.33;;
46198;SDS011;31928;52.104;10.030;2022-08-30T15:33:11;2.42;;;1.80;;
46198;SDS011;31928;52.104;10.030;2022-08-30T15:35:37;1.55;;;1.42;;
46198;SDS011;31928;52.104;10.030;2022-08-30T15:38:04;1.15;;;1.10;;
46198;SDS011;31928;52.104;10.030;2022-08-30T15:40:31;1.40;;;1.20;;
46198;SDS011;31928;52.104;10.030;2022-08-30T15:43:01;1.38;;;1.27;;
46198;SDS011;31928;52.104;10.030;2022-08-30T15:45:29;1.20;;;1.08;;
46198;SDS011;31928;52.104;10.030;2022-08-30T15:47:58;3.55;;;1.70;;
46198;SDS011;31928;52.104;10.030;2022-08-30T15:50:26;1.40;;;1.30;;
46198;SDS011;31928;52.104;10.030;2022-08-30T15:52:53;1.63;;;1.35;;
46198;SDS011;31928;52.104;10.030;2022-08-30T15:55:20;1.90;;;1.40;;
46198;SDS011;31928;52.104;10.030;2022-08-30T15:57:46;1.30;;;1.20;;
46198;SDS011;31928;52.104;10.030;2022-08-30T16:00:13;1.52;;;1.30;;
46198;SDS011;31928;52.104;10.030;2022-08-30T16:02:40;1.40;;;1.30;;
46198;SDS011;31928;52.104;10.030;2022-08-30T16:05:08;1.20;;;1.10;;
46198;SDS011;31928;52.104;10.030;2022-08-30T16:07:35;1.15;;;1.05;;
46198;SDS011;31928;52.104;10.030;2022-08-30T16:10:06;2.03;;;1.20;;
46198;SDS011;31928;52.104;10.030;2022-08-30T16:12:33;1.63;;;1.52;;
46198;SDS011;31928;52.104;10.030;2022-08-30T16:15:00;1.77;;;1.10;;
46198;SDS011;31928;52.104;10.030;2022-08-30T16:17:27;1.13;;;1.02;;
46198;SDS011;31928;52.104;10.030;2022-08-30T16:19:55;3.03;;;1.00;;
46198;SDS011;31928;52.104;10.030;2022-08-30T16:22:24;1.75;;;1.10;;
46198;SDS011;31928;52.104;10.030;2022-08-30T16:24:51;1.30;;;1.20;;
46198;SDS011;31928;52.104;10.030;2022-08-30T16:27:18;1.30;;;1.10;;
46198;SDS011;31928;52.104;10.030;2022-08-30T16:29:46;7.07;;;1.85;;
46198;SDS011;31928;52.104;10.030;2022-08-30T16:32:15;15.77;;;2.38;;
46198;SDS011;31928;52.104;10.030;2022-08-30T16:34:41;12.13;;;2.78;;
46198;SDS011;31928;52.104;10.030;2022-08-30T16:37:08;2.38;;;1.40;;
46198;SDS011;31928;52.104;10.030;2022-08-30T16:39:34;0.90;;;0.90;;